sensor_id;sensor_type;location;lat;lon;timestamp;temperature;humidity
782;DHT22;374;52.568;13.402;2022-08-05T00:01:32;29.30;46.20
782;DHT22;374;52.568;13.402;2022-08-05T00:03:57;29.30;46.50
782;DHT22;374;52.568;13.402;2022-08-05T00:06:23;29.30;46.70
782;DHT22;374;52.568;13.402;2022-08-05T00:08:49;29.20;46.70
782;DHT22;374;52.568;13.402;2022-08-05T00:11:15;29.20;46.70
782;DHT22;374;52.568;13.402;2022-08-05T00:13:42;29.20;47.00
782;DHT22;374;52.568;13.402;2022-08-05T00:16:10;29.20;47.20
782;DHT22;374;52.568;13.402;2022-08-05T00:18:41;29.10;47.10
782;DHT22;374;52.568;13.402;2022-08-05T00:21:06;29.00;47.00
782;DHT22;374;52.568;13.402;2022-08-05T00:23:32;29.00;47.20
782;DHT22;374;52.568;13.402;2022-08-05T00:25:58;29.00;47.50
782;DHT22;374;52.568;13.402;2022-08-05T00:28:25;29.00;48.00
782;DHT22;374;52.568;13.402;2022-08-05T00:30:51;28.90;48.10
782;DHT22;374;52.568;13.402;2022-08-05T00:33:16;28.80;48.10
782;DHT22;374;52.568;13.402;2022-08-05T00:35:42;28.80;48.00
782;DHT22;374;52.568;13.402;2022-08-05T00:38:07;28.70;48.00
782;DHT22;374;52.568;13.402;2022-08-05T00:40:33;28.70;48.10
782;DHT22;374;52.568;13.402;2022-08-05T00:43:01;28.70;48.20
782;DHT22;374;52.568;13.402;2022-08-05T00:45:27;28.70;48.50
782;DHT22;374;52.568;13.402;2022-08-05T00:47:53;28.60;48.80
782;DHT22;374;52.568;13.402;2022-08-05T00:50:19;28.60;48.70
782;DHT22;374;52.568;13.402;2022-08-05T00:52:44;28.50;48.30
782;DHT22;374;52.568;13.402;2022-08-05T00:55:10;28.50;48.50
782;DHT22;374;52.568;13.402;2022-08-05T00:57:36;28.50;48.70
782;DHT22;374;52.568;13.402;2022-08-05T01:00:04;28.50;49.20
782;DHT22;374;52.568;13.402;2022-08-05T01:02:29;28.40;49.40
782;DHT22;374;52.568;13.402;2022-08-05T01:04:55;28.40;49.70
782;DHT22;374;52.568;13.402;2022-08-05T01:07:20;28.40;50.10
782;DHT22;374;52.568;13.402;2022-08-05T01:09:46;28.30;50.30
782;DHT22;374;52.568;13.402;2022-08-05T01:12:14;28.30;50.30
782;DHT22;374;52.568;13.402;2022-08-05T01:17:48;28.10;50.50
782;DHT22;374;52.568;13.402;2022-08-05T01:20:50;28.10;50.90
782;DHT22;374;52.568;13.402;2022-08-05T01:26:53;27.90;51.50
782;DHT22;374;52.568;13.402;2022-08-05T01:29:40;27.80;51.70
782;DHT22;374;52.568;13.402;2022-08-05T01:32:09;27.70;52.00
782;DHT22;374;52.568;13.402;2022-08-05T01:34:47;27.70;52.30
782;DHT22;374;52.568;13.402;2022-08-05T01:37:18;27.60;52.50
782;DHT22;374;52.568;13.402;2022-08-05T01:39:46;27.60;53.00
782;DHT22;374;52.568;13.402;2022-08-05T01:42:15;27.50;53.20
782;DHT22;374;52.568;13.402;2022-08-05T01:44:43;27.40;53.40
782;DHT22;374;52.568;13.402;2022-08-05T01:47:10;27.40;53.90
782;DHT22;374;52.568;13.402;2022-08-05T01:49:38;27.30;54.20
782;DHT22;374;52.568;13.402;2022-08-05T01:52:05;27.20;54.40
782;DHT22;374;52.568;13.402;2022-08-05T01:54:36;27.20;54.60
782;DHT22;374;52.568;13.402;2022-08-05T01:57:04;27.20;55.20
782;DHT22;374;52.568;13.402;2022-08-05T01:59:31;27.10;55.20
782;DHT22;374;52.568;13.402;2022-08-05T02:01:59;27.10;55.30
782;DHT22;374;52.568;13.402;2022-08-05T02:04:27;27.10;55.50
782;DHT22;374;52.568;13.402;2022-08-05T02:06:53;27.00;55.70
782;DHT22;374;52.568;13.402;2022-08-05T02:09:19;27.00;55.90
782;DHT22;374;52.568;13.402;2022-08-05T02:11:52;27.00;56.10
782;DHT22;374;52.568;13.402;2022-08-05T02:14:51;26.90;56.10
782;DHT22;374;52.568;13.402;2022-08-05T02:17:28;26.90;56.50
782;DHT22;374;52.568;13.402;2022-08-05T02:19:59;26.80;56.60
782;DHT22;374;52.568;13.402;2022-08-05T02:22:28;26.80;56.80
782;DHT22;374;52.568;13.402;2022-08-05T02:25:03;26.70;56.80
782;DHT22;374;52.568;13.402;2022-08-05T02:27:32;26.70;57.00
782;DHT22;374;52.568;13.402;2022-08-05T02:30:00;26.70;57.30
782;DHT22;374;52.568;13.402;2022-08-05T02:32:27;26.70;57.50
782;DHT22;374;52.568;13.402;2022-08-05T02:34:59;26.60;57.70
782;DHT22;374;52.568;13.402;2022-08-05T02:37:26;26.60;57.90
782;DHT22;374;52.568;13.402;2022-08-05T02:39:52;26.60;57.80
782;DHT22;374;52.568;13.402;2022-08-05T02:42:19;26.50;58.00
782;DHT22;374;52.568;13.402;2022-08-05T02:44:45;26.50;58.30
782;DHT22;374;52.568;13.402;2022-08-05T02:47:12;26.50;58.50
782;DHT22;374;52.568;13.402;2022-08-05T02:49:39;26.50;58.60
782;DHT22;374;52.568;13.402;2022-08-05T02:52:17;26.40;58.70
782;DHT22;374;52.568;13.402;2022-08-05T02:54:44;26.40;58.90
782;DHT22;374;52.568;13.402;2022-08-05T02:57:13;26.40;59.70
782;DHT22;374;52.568;13.402;2022-08-05T02:59:41;26.40;59.20
782;DHT22;374;52.568;13.402;2022-08-05T03:02:08;26.30;59.50
782;DHT22;374;52.568;13.402;2022-08-05T03:04:34;26.30;59.60
782;DHT22;374;52.568;13.402;2022-08-05T03:07:00;26.30;59.80
782;DHT22;374;52.568;13.402;2022-08-05T03:09:26;26.20;59.90
782;DHT22;374;52.568;13.402;2022-08-05T03:11:52;26.20;60.00
782;DHT22;374;52.568;13.402;2022-08-05T03:14:18;26.20;60.10
782;DHT22;374;52.568;13.402;2022-08-05T03:16:43;26.20;60.20
782;DHT22;374;52.568;13.402;2022-08-05T03:19:09;26.20;60.50
782;DHT22;374;52.568;13.402;2022-08-05T03:21:34;26.20;60.70
782;DHT22;374;52.568;13.402;2022-08-05T03:24:00;26.20;60.80
782;DHT22;374;52.568;13.402;2022-08-05T03:26:26;26.10;61.20
782;DHT22;374;52.568;13.402;2022-08-05T03:28:52;26.10;61.00
782;DHT22;374;52.568;13.402;2022-08-05T03:31:17;26.10;61.20
782;DHT22;374;52.568;13.402;2022-08-05T03:33:43;26.00;61.30
782;DHT22;374;52.568;13.402;2022-08-05T03:36:09;26.00;61.30
782;DHT22;374;52.568;13.402;2022-08-05T03:38:40;26.00;61.70
782;DHT22;374;52.568;13.402;2022-08-05T03:41:06;26.00;61.70
782;DHT22;374;52.568;13.402;2022-08-05T03:43:32;26.00;61.80
782;DHT22;374;52.568;13.402;2022-08-05T03:45:57;26.00;62.10
782;DHT22;374;52.568;13.402;2022-08-05T03:48:23;26.00;62.10
782;DHT22;374;52.568;13.402;2022-08-05T03:54:02;25.90;62.40
782;DHT22;374;52.568;13.402;2022-08-05T03:56:47;25.90;62.30
782;DHT22;374;52.568;13.402;2022-08-05T03:59:22;25.90;63.30
782;DHT22;374;52.568;13.402;2022-08-05T04:01:50;25.90;62.60
782;DHT22;374;52.568;13.402;2022-08-05T04:04:16;25.90;62.70
782;DHT22;374;52.568;13.402;2022-08-05T04:06:42;25.80;62.80
782;DHT22;374;52.568;13.402;2022-08-05T04:09:09;25.80;63.00
782;DHT22;374;52.568;13.402;2022-08-05T04:11:36;25.80;62.80
782;DHT22;374;52.568;13.402;2022-08-05T04:14:02;25.80;63.10
782;DHT22;374;52.568;13.402;2022-08-05T04:16:28;25.80;63.30
782;DHT22;374;52.568;13.402;2022-08-05T04:18:55;25.80;63.30
782;DHT22;374;52.568;13.402;2022-08-05T04:21:21;25.80;63.60
782;DHT22;374;52.568;13.402;2022-08-05T04:23:47;25.80;63.50
782;DHT22;374;52.568;13.402;2022-08-05T04:26:13;25.80;63.60
782;DHT22;374;52.568;13.402;2022-08-05T04:28:38;25.90;63.60
782;DHT22;374;52.568;13.402;2022-08-05T04:31:04;25.90;63.70
782;DHT22;374;52.568;13.402;2022-08-05T04:33:30;25.90;63.90
782;DHT22;374;52.568;13.402;2022-08-05T04:35:55;25.90;64.00
782;DHT22;374;52.568;13.402;2022-08-05T04:38:21;25.90;64.20
782;DHT22;374;52.568;13.402;2022-08-05T04:40:46;25.90;64.40
782;DHT22;374;52.568;13.402;2022-08-05T04:43:12;25.90;65.20
782;DHT22;374;52.568;13.402;2022-08-05T04:45:37;25.90;64.50
782;DHT22;374;52.568;13.402;2022-08-05T04:48:08;25.90;64.50
782;DHT22;374;52.568;13.402;2022-08-05T04:50:41;25.90;64.60
782;DHT22;374;52.568;13.402;2022-08-05T04:53:08;25.90;64.60
782;DHT22;374;52.568;13.402;2022-08-05T04:55:38;25.90;64.80
782;DHT22;374;52.568;13.402;2022-08-05T04:58:08;25.90;64.90
782;DHT22;374;52.568;13.402;2022-08-05T05:00:35;26.00;65.10
782;DHT22;374;52.568;13.402;2022-08-05T05:03:02;26.00;65.10
782;DHT22;374;52.568;13.402;2022-08-05T05:05:28;26.00;65.20
782;DHT22;374;52.568;13.402;2022-08-05T05:07:56;26.00;65.50
782;DHT22;374;52.568;13.402;2022-08-05T05:10:23;26.00;65.60
782;DHT22;374;52.568;13.402;2022-08-05T05:12:49;26.00;65.60
782;DHT22;374;52.568;13.402;2022-08-05T05:15:14;26.10;65.50
782;DHT22;374;52.568;13.402;2022-08-05T05:17:41;26.10;65.80
782;DHT22;374;52.568;13.402;2022-08-05T05:20:11;26.10;65.80
782;DHT22;374;52.568;13.402;2022-08-05T05:22:37;26.10;66.00
782;DHT22;374;52.568;13.402;2022-08-05T05:25:10;26.10;66.20
782;DHT22;374;52.568;13.402;2022-08-05T05:27:37;26.00;66.30
782;DHT22;374;52.568;13.402;2022-08-05T05:30:03;26.10;66.40
782;DHT22;374;52.568;13.402;2022-08-05T05:32:29;26.10;66.30
782;DHT22;374;52.568;13.402;2022-08-05T05:34:57;26.20;66.50
782;DHT22;374;52.568;13.402;2022-08-05T05:37:23;26.20;66.30
782;DHT22;374;52.568;13.402;2022-08-05T05:39:48;26.20;66.50
782;DHT22;374;52.568;13.402;2022-08-05T05:42:14;26.20;66.20
782;DHT22;374;52.568;13.402;2022-08-05T05:44:39;26.30;66.60
782;DHT22;374;52.568;13.402;2022-08-05T05:47:05;26.30;66.50
782;DHT22;374;52.568;13.402;2022-08-05T05:49:30;26.30;66.70
782;DHT22;374;52.568;13.402;2022-08-05T05:51:56;26.30;66.70
782;DHT22;374;52.568;13.402;2022-08-05T05:54:22;26.30;66.80
782;DHT22;374;52.568;13.402;2022-08-05T05:56:48;26.30;66.70
782;DHT22;374;52.568;13.402;2022-08-05T05:59:14;26.40;66.80
782;DHT22;374;52.568;13.402;2022-08-05T06:01:41;26.40;66.70
782;DHT22;374;52.568;13.402;2022-08-05T06:04:11;26.40;66.70
782;DHT22;374;52.568;13.402;2022-08-05T06:06:41;26.40;66.50
782;DHT22;374;52.568;13.402;2022-08-05T06:09:06;26.50;67.00
782;DHT22;374;52.568;13.402;2022-08-05T06:11:32;26.50;66.60
782;DHT22;374;52.568;13.402;2022-08-05T06:13:59;26.50;66.30
782;DHT22;374;52.568;13.402;2022-08-05T06:16:24;26.50;66.30
782;DHT22;374;52.568;13.402;2022-08-05T06:18:50;26.50;66.00
782;DHT22;374;52.568;13.402;2022-08-05T06:21:16;26.50;66.30
782;DHT22;374;52.568;13.402;2022-08-05T06:23:42;26.60;66.20
782;DHT22;374;52.568;13.402;2022-08-05T06:26:07;26.60;66.40
782;DHT22;374;52.568;13.402;2022-08-05T06:28:33;26.60;66.30
782;DHT22;374;52.568;13.402;2022-08-05T06:30:58;26.60;66.40
782;DHT22;374;52.568;13.402;2022-08-05T06:33:24;26.70;66.30
782;DHT22;374;52.568;13.402;2022-08-05T06:35:50;26.80;66.20
782;DHT22;374;52.568;13.402;2022-08-05T06:38:15;26.90;66.50
782;DHT22;374;52.568;13.402;2022-08-05T06:40:41;27.00;66.50
782;DHT22;374;52.568;13.402;2022-08-05T06:43:07;27.10;66.60
782;DHT22;374;52.568;13.402;2022-08-05T06:45:33;27.20;66.70
782;DHT22;374;52.568;13.402;2022-08-05T06:47:59;27.20;66.50
782;DHT22;374;52.568;13.402;2022-08-05T06:50:24;27.40;66.30
782;DHT22;374;52.568;13.402;2022-08-05T06:52:51;27.50;65.90
782;DHT22;374;52.568;13.402;2022-08-05T06:55:17;27.60;65.50
782;DHT22;374;52.568;13.402;2022-08-05T06:57:42;27.70;65.20
782;DHT22;374;52.568;13.402;2022-08-05T07:00:08;27.70;65.20
782;DHT22;374;52.568;13.402;2022-08-05T07:02:41;27.70;65.40
782;DHT22;374;52.568;13.402;2022-08-05T07:05:16;27.80;65.40
782;DHT22;374;52.568;13.402;2022-08-05T07:07:44;27.80;65.20
782;DHT22;374;52.568;13.402;2022-08-05T07:10:13;27.80;64.80
782;DHT22;374;52.568;13.402;2022-08-05T07:12:38;27.80;64.70
782;DHT22;374;52.568;13.402;2022-08-05T07:15:22;27.80;64.60
782;DHT22;374;52.568;13.402;2022-08-05T07:18:06;27.90;64.60
782;DHT22;374;52.568;13.402;2022-08-05T07:20:35;28.00;64.70
782;DHT22;374;52.568;13.402;2022-08-05T07:23:00;28.00;64.20
782;DHT22;374;52.568;13.402;2022-08-05T07:25:27;28.00;64.30
782;DHT22;374;52.568;13.402;2022-08-05T07:27:54;28.10;64.40
782;DHT22;374;52.568;13.402;2022-08-05T07:30:20;28.20;64.30
782;DHT22;374;52.568;13.402;2022-08-05T07:32:45;28.20;64.00
782;DHT22;374;52.568;13.402;2022-08-05T07:35:12;28.20;63.60
782;DHT22;374;52.568;13.402;2022-08-05T07:37:38;28.20;63.60
782;DHT22;374;52.568;13.402;2022-08-05T07:40:05;28.30;63.80
782;DHT22;374;52.568;13.402;2022-08-05T07:42:31;28.30;63.40
782;DHT22;374;52.568;13.402;2022-08-05T07:44:56;28.30;63.40
782;DHT22;374;52.568;13.402;2022-08-05T07:47:22;28.30;63.60
782;DHT22;374;52.568;13.402;2022-08-05T07:49:48;28.30;63.60
782;DHT22;374;52.568;13.402;2022-08-05T07:52:17;28.20;63.60
782;DHT22;374;52.568;13.402;2022-08-05T07:54:42;28.20;63.80
782;DHT22;374;52.568;13.402;2022-08-05T07:57:08;28.20;63.90
782;DHT22;374;52.568;13.402;2022-08-05T07:59:33;28.10;64.00
782;DHT22;374;52.568;13.402;2022-08-05T08:01:59;28.00;64.20
782;DHT22;374;52.568;13.402;2022-08-05T08:04:25;27.90;64.40
782;DHT22;374;52.568;13.402;2022-08-05T08:06:51;27.80;64.60
782;DHT22;374;52.568;13.402;2022-08-05T08:09:17;27.70;64.70
782;DHT22;374;52.568;13.402;2022-08-05T08:11:42;27.70;65.20
782;DHT22;374;52.568;13.402;2022-08-05T08:14:07;27.60;65.50
782;DHT22;374;52.568;13.402;2022-08-05T08:16:33;27.60;65.60
782;DHT22;374;52.568;13.402;2022-08-05T08:19:00;27.50;65.70
782;DHT22;374;52.568;13.402;2022-08-05T08:21:25;27.50;66.00
782;DHT22;374;52.568;13.402;2022-08-05T08:23:51;27.40;65.90
782;DHT22;374;52.568;13.402;2022-08-05T08:26:16;27.40;66.30
782;DHT22;374;52.568;13.402;2022-08-05T08:28:42;27.40;66.20
782;DHT22;374;52.568;13.402;2022-08-05T08:31:07;27.30;66.60
782;DHT22;374;52.568;13.402;2022-08-05T08:33:33;27.30;66.40
782;DHT22;374;52.568;13.402;2022-08-05T08:35:59;27.30;66.00
782;DHT22;374;52.568;13.402;2022-08-05T08:38:25;27.30;66.00
782;DHT22;374;52.568;13.402;2022-08-05T08:40:50;27.30;65.70
782;DHT22;374;52.568;13.402;2022-08-05T08:43:17;27.30;65.40
782;DHT22;374;52.568;13.402;2022-08-05T08:45:44;27.20;65.50
782;DHT22;374;52.568;13.402;2022-08-05T08:48:11;27.20;65.70
782;DHT22;374;52.568;13.402;2022-08-05T08:50:41;27.20;66.00
782;DHT22;374;52.568;13.402;2022-08-05T08:53:09;27.20;66.10
782;DHT22;374;52.568;13.402;2022-08-05T08:55:36;27.20;66.50
782;DHT22;374;52.568;13.402;2022-08-05T08:58:02;27.10;66.70
782;DHT22;374;52.568;13.402;2022-08-05T09:00:28;27.10;66.70
782;DHT22;374;52.568;13.402;2022-08-05T09:02:55;27.10;67.00
782;DHT22;374;52.568;13.402;2022-08-05T09:05:21;27.10;67.40
782;DHT22;374;52.568;13.402;2022-08-05T09:07:48;27.00;67.80
782;DHT22;374;52.568;13.402;2022-08-05T09:10:15;27.00;68.30
782;DHT22;374;52.568;13.402;2022-08-05T09:12:40;27.00;70.20
782;DHT22;374;52.568;13.402;2022-08-05T09:15:06;26.90;70.90
782;DHT22;374;52.568;13.402;2022-08-05T09:17:32;26.90;71.30
782;DHT22;374;52.568;13.402;2022-08-05T09:19:59;26.90;71.00
782;DHT22;374;52.568;13.402;2022-08-05T09:22:25;26.90;71.30
782;DHT22;374;52.568;13.402;2022-08-05T09:25:02;26.90;71.30
782;DHT22;374;52.568;13.402;2022-08-05T09:27:35;26.90;71.20
782;DHT22;374;52.568;13.402;2022-08-05T09:30:04;26.90;70.80
782;DHT22;374;52.568;13.402;2022-08-05T09:32:35;27.00;71.50
782;DHT22;374;52.568;13.402;2022-08-05T09:35:14;27.10;72.20
782;DHT22;374;52.568;13.402;2022-08-05T09:37:51;27.30;70.80
782;DHT22;374;52.568;13.402;2022-08-05T09:40:34;27.50;70.10
782;DHT22;374;52.568;13.402;2022-08-05T09:43:01;27.60;69.40
782;DHT22;374;52.568;13.402;2022-08-05T09:45:36;27.70;69.40
782;DHT22;374;52.568;13.402;2022-08-05T09:48:19;27.70;68.40
782;DHT22;374;52.568;13.402;2022-08-05T09:50:49;27.70;68.10
782;DHT22;374;52.568;13.402;2022-08-05T09:53:16;27.60;68.00
782;DHT22;374;52.568;13.402;2022-08-05T09:55:41;27.60;68.00
782;DHT22;374;52.568;13.402;2022-08-05T09:58:14;27.60;68.30
782;DHT22;374;52.568;13.402;2022-08-05T10:01:00;27.50;68.50
782;DHT22;374;52.568;13.402;2022-08-05T10:03:27;27.40;68.60
782;DHT22;374;52.568;13.402;2022-08-05T10:06:19;27.30;71.80
782;DHT22;374;52.568;13.402;2022-08-05T10:08:45;27.20;77.30
782;DHT22;374;52.568;13.402;2022-08-05T10:11:15;27.10;82.30
782;DHT22;374;52.568;13.402;2022-08-05T10:13:43;26.70;84.80
782;DHT22;374;52.568;13.402;2022-08-05T10:16:28;26.30;85.80
782;DHT22;374;52.568;13.402;2022-08-05T10:18:55;26.10;90.10
782;DHT22;374;52.568;13.402;2022-08-05T10:21:24;26.00;90.60
782;DHT22;374;52.568;13.402;2022-08-05T10:23:50;26.00;90.30
782;DHT22;374;52.568;13.402;2022-08-05T10:26:23;25.90;92.30
782;DHT22;374;52.568;13.402;2022-08-05T10:28:50;25.90;92.90
782;DHT22;374;52.568;13.402;2022-08-05T10:31:19;25.90;94.10
782;DHT22;374;52.568;13.402;2022-08-05T10:33:44;25.90;94.30
782;DHT22;374;52.568;13.402;2022-08-05T10:36:10;25.90;92.70
782;DHT22;374;52.568;13.402;2022-08-05T10:38:36;25.90;93.40
782;DHT22;374;52.568;13.402;2022-08-05T10:41:16;25.90;94.10
782;DHT22;374;52.568;13.402;2022-08-05T10:43:49;25.90;92.80
782;DHT22;374;52.568;13.402;2022-08-05T10:46:18;26.00;94.00
782;DHT22;374;52.568;13.402;2022-08-05T10:48:48;25.90;93.30
782;DHT22;374;52.568;13.402;2022-08-05T10:51:15;25.90;93.40
782;DHT22;374;52.568;13.402;2022-08-05T10:59:02;25.90;93.10
782;DHT22;374;52.568;13.402;2022-08-05T11:01:37;25.90;93.80
782;DHT22;374;52.568;13.402;2022-08-05T11:04:06;25.90;93.20
782;DHT22;374;52.568;13.402;2022-08-05T11:06:34;26.00;93.40
782;DHT22;374;52.568;13.402;2022-08-05T11:09:19;26.00;93.10
782;DHT22;374;52.568;13.402;2022-08-05T11:11:48;26.00;92.50
782;DHT22;374;52.568;13.402;2022-08-05T11:14:36;26.10;92.80
782;DHT22;374;52.568;13.402;2022-08-05T11:17:27;26.10;92.30
782;DHT22;374;52.568;13.402;2022-08-05T11:19:54;26.20;90.20
782;DHT22;374;52.568;13.402;2022-08-05T11:22:43;26.20;90.70
782;DHT22;374;52.568;13.402;2022-08-05T11:25:38;26.20;89.00
782;DHT22;374;52.568;13.402;2022-08-05T11:33:52;26.60;86.90
782;DHT22;374;52.568;13.402;2022-08-05T11:36:41;26.60;85.40
782;DHT22;374;52.568;13.402;2022-08-05T11:39:09;26.60;86.70
782;DHT22;374;52.568;13.402;2022-08-05T11:41:36;26.60;86.90
782;DHT22;374;52.568;13.402;2022-08-05T11:44:12;26.60;86.90
782;DHT22;374;52.568;13.402;2022-08-05T11:46:42;26.60;86.50
782;DHT22;374;52.568;13.402;2022-08-05T11:49:10;26.60;85.50
782;DHT22;374;52.568;13.402;2022-08-05T11:51:40;26.70;84.70
782;DHT22;374;52.568;13.402;2022-08-05T11:54:07;26.70;85.80
782;DHT22;374;52.568;13.402;2022-08-05T11:59:16;26.90;84.00
782;DHT22;374;52.568;13.402;2022-08-05T12:02:11;26.80;82.70
782;DHT22;374;52.568;13.402;2022-08-05T12:04:44;26.90;83.50
782;DHT22;374;52.568;13.402;2022-08-05T12:07:13;27.00;82.10
782;DHT22;374;52.568;13.402;2022-08-05T12:09:40;27.00;81.80
782;DHT22;374;52.568;13.402;2022-08-05T12:12:07;27.00;82.10
782;DHT22;374;52.568;13.402;2022-08-05T12:14:40;27.10;82.10
782;DHT22;374;52.568;13.402;2022-08-05T12:17:10;27.10;81.90
782;DHT22;374;52.568;13.402;2022-08-05T12:19:44;27.10;79.90
782;DHT22;374;52.568;13.402;2022-08-05T12:22:09;27.20;79.90
782;DHT22;374;52.568;13.402;2022-08-05T12:24:43;27.20;80.40
782;DHT22;374;52.568;13.402;2022-08-05T12:27:09;27.20;78.70
782;DHT22;374;52.568;13.402;2022-08-05T12:29:35;27.20;77.30
782;DHT22;374;52.568;13.402;2022-08-05T12:32:01;27.30;78.40
782;DHT22;374;52.568;13.402;2022-08-05T12:34:32;27.30;77.50
782;DHT22;374;52.568;13.402;2022-08-05T12:37:00;27.30;76.30
782;DHT22;374;52.568;13.402;2022-08-05T12:39:26;27.30;77.00
782;DHT22;374;52.568;13.402;2022-08-05T12:41:58;27.30;76.70
782;DHT22;374;52.568;13.402;2022-08-05T12:44:25;27.30;76.40
782;DHT22;374;52.568;13.402;2022-08-05T12:46:53;27.30;75.00
782;DHT22;374;52.568;13.402;2022-08-05T12:49:19;27.30;76.70
782;DHT22;374;52.568;13.402;2022-08-05T12:51:49;27.40;75.50
782;DHT22;374;52.568;13.402;2022-08-05T12:54:29;27.40;75.50
782;DHT22;374;52.568;13.402;2022-08-05T12:57:03;27.50;75.80
782;DHT22;374;52.568;13.402;2022-08-05T12:59:29;27.40;75.50
782;DHT22;374;52.568;13.402;2022-08-05T13:02:09;27.50;75.10
782;DHT22;374;52.568;13.402;2022-08-05T13:04:37;27.60;74.90
782;DHT22;374;52.568;13.402;2022-08-05T13:07:06;27.60;73.70
782;DHT22;374;52.568;13.402;2022-08-05T13:09:33;27.60;74.00
782;DHT22;374;52.568;13.402;2022-08-05T13:12:07;27.70;73.40
782;DHT22;374;52.568;13.402;2022-08-05T13:14:51;27.70;72.30
782;DHT22;374;52.568;13.402;2022-08-05T13:17:20;27.80;72.10
782;DHT22;374;52.568;13.402;2022-08-05T13:20:07;27.80;72.90
782;DHT22;374;52.568;13.402;2022-08-05T13:22:35;27.80;72.30
782;DHT22;374;52.568;13.402;2022-08-05T13:25:06;27.90;72.10
782;DHT22;374;52.568;13.402;2022-08-05T13:27:39;27.90;71.40
782;DHT22;374;52.568;13.402;2022-08-05T13:30:08;27.90;71.20
782;DHT22;374;52.568;13.402;2022-08-05T13:32:34;28.00;71.10
782;DHT22;374;52.568;13.402;2022-08-05T13:35:00;28.00;70.50
782;DHT22;374;52.568;13.402;2022-08-05T13:37:25;28.00;69.80
782;DHT22;374;52.568;13.402;2022-08-05T13:39:51;28.00;70.00
782;DHT22;374;52.568;13.402;2022-08-05T13:42:21;28.00;68.70
782;DHT22;374;52.568;13.402;2022-08-05T13:44:52;28.00;68.00
782;DHT22;374;52.568;13.402;2022-08-05T13:47:18;28.00;67.50
782;DHT22;374;52.568;13.402;2022-08-05T13:49:43;28.10;67.80
782;DHT22;374;52.568;13.402;2022-08-05T13:52:14;28.10;67.40
782;DHT22;374;52.568;13.402;2022-08-05T13:54:40;28.10;67.60
782;DHT22;374;52.568;13.402;2022-08-05T13:57:10;28.10;68.60
782;DHT22;374;52.568;13.402;2022-08-05T13:59:37;28.10;68.90
782;DHT22;374;52.568;13.402;2022-08-05T14:02:04;28.10;69.20
782;DHT22;374;52.568;13.402;2022-08-05T14:04:32;28.10;69.50
782;DHT22;374;52.568;13.402;2022-08-05T14:07:22;28.10;69.80
782;DHT22;374;52.568;13.402;2022-08-05T14:09:48;28.10;69.90
782;DHT22;374;52.568;13.402;2022-08-05T14:12:14;28.10;69.70
782;DHT22;374;52.568;13.402;2022-08-05T14:14:39;28.20;70.20
782;DHT22;374;52.568;13.402;2022-08-05T14:17:05;28.20;70.70
782;DHT22;374;52.568;13.402;2022-08-05T14:19:30;28.20;71.60
782;DHT22;374;52.568;13.402;2022-08-05T14:21:56;28.20;71.50
782;DHT22;374;52.568;13.402;2022-08-05T14:24:21;28.30;71.70
782;DHT22;374;52.568;13.402;2022-08-05T14:26:47;28.20;71.60
782;DHT22;374;52.568;13.402;2022-08-05T14:29:12;28.30;71.30
782;DHT22;374;52.568;13.402;2022-08-05T14:31:38;28.30;71.10
782;DHT22;374;52.568;13.402;2022-08-05T14:34:03;28.30;70.80
782;DHT22;374;52.568;13.402;2022-08-05T14:36:29;28.30;70.80
782;DHT22;374;52.568;13.402;2022-08-05T14:38:54;28.20;70.60
782;DHT22;374;52.568;13.402;2022-08-05T14:41:21;28.30;70.60
782;DHT22;374;52.568;13.402;2022-08-05T14:43:46;28.30;70.20
782;DHT22;374;52.568;13.402;2022-08-05T14:46:12;28.30;70.20
782;DHT22;374;52.568;13.402;2022-08-05T14:48:37;28.30;70.60
782;DHT22;374;52.568;13.402;2022-08-05T14:51:03;28.30;70.70
782;DHT22;374;52.568;13.402;2022-08-05T14:53:29;28.30;70.90
782;DHT22;374;52.568;13.402;2022-08-05T14:55:54;28.30;70.50
782;DHT22;374;52.568;13.402;2022-08-05T14:58:20;28.20;70.40
782;DHT22;374;52.568;13.402;2022-08-05T15:00:45;28.20;70.60
782;DHT22;374;52.568;13.402;2022-08-05T15:03:11;28.20;71.20
782;DHT22;374;52.568;13.402;2022-08-05T15:05:36;28.20;71.30
782;DHT22;374;52.568;13.402;2022-08-05T15:08:02;28.10;71.30
782;DHT22;374;52.568;13.402;2022-08-05T15:10:28;28.10;71.40
782;DHT22;374;52.568;13.402;2022-08-05T15:12:54;28.00;71.40
782;DHT22;374;52.568;13.402;2022-08-05T15:15:20;28.00;71.60
782;DHT22;374;52.568;13.402;2022-08-05T15:17:45;28.00;72.10
782;DHT22;374;52.568;13.402;2022-08-05T15:20:11;27.90;71.80
782;DHT22;374;52.568;13.402;2022-08-05T15:22:38;27.90;71.90
782;DHT22;374;52.568;13.402;2022-08-05T15:25:04;27.90;71.80
782;DHT22;374;52.568;13.402;2022-08-05T15:27:30;27.80;71.70
782;DHT22;374;52.568;13.402;2022-08-05T15:29:55;27.80;71.70
782;DHT22;374;52.568;13.402;2022-08-05T15:32:22;27.80;71.40
782;DHT22;374;52.568;13.402;2022-08-05T15:34:48;27.70;71.40
782;DHT22;374;52.568;13.402;2022-08-05T15:37:13;27.70;71.80
782;DHT22;374;52.568;13.402;2022-08-05T15:39:39;27.60;72.50
782;DHT22;374;52.568;13.402;2022-08-05T15:42:05;27.60;73.10
782;DHT22;374;52.568;13.402;2022-08-05T15:44:30;27.50;73.40
782;DHT22;374;52.568;13.402;2022-08-05T15:46:56;27.50;73.50
782;DHT22;374;52.568;13.402;2022-08-05T15:49:22;27.50;73.80
782;DHT22;374;52.568;13.402;2022-08-05T15:51:47;27.40;74.10
782;DHT22;374;52.568;13.402;2022-08-05T15:54:13;27.40;75.50
782;DHT22;374;52.568;13.402;2022-08-05T15:56:38;27.30;75.20
782;DHT22;374;52.568;13.402;2022-08-05T15:59:04;27.30;75.70
782;DHT22;374;52.568;13.402;2022-08-05T16:01:29;27.30;76.30
782;DHT22;374;52.568;13.402;2022-08-05T16:03:55;27.20;76.70
782;DHT22;374;52.568;13.402;2022-08-05T16:06:20;27.20;76.80
782;DHT22;374;52.568;13.402;2022-08-05T16:08:48;27.20;76.60
782;DHT22;374;52.568;13.402;2022-08-05T16:11:14;27.10;76.30
782;DHT22;374;52.568;13.402;2022-08-05T16:13:39;27.10;76.00
782;DHT22;374;52.568;13.402;2022-08-05T16:16:05;27.10;76.30
782;DHT22;374;52.568;13.402;2022-08-05T16:18:31;27.10;76.40
782;DHT22;374;52.568;13.402;2022-08-05T16:20:57;27.10;76.70
782;DHT22;374;52.568;13.402;2022-08-05T16:23:24;27.10;76.60
782;DHT22;374;52.568;13.402;2022-08-05T16:25:50;27.00;76.50
782;DHT22;374;52.568;13.402;2022-08-05T16:28:15;27.00;76.30
782;DHT22;374;52.568;13.402;2022-08-05T16:30:42;27.00;75.90
782;DHT22;374;52.568;13.402;2022-08-05T16:33:07;26.90;76.30
782;DHT22;374;52.568;13.402;2022-08-05T16:35:33;26.80;76.40
782;DHT22;374;52.568;13.402;2022-08-05T16:37:58;26.80;76.50
782;DHT22;374;52.568;13.402;2022-08-05T16:40:24;26.80;76.60
782;DHT22;374;52.568;13.402;2022-08-05T16:42:49;26.80;76.90
782;DHT22;374;52.568;13.402;2022-08-05T16:45:15;26.80;77.60
782;DHT22;374;52.568;13.402;2022-08-05T16:47:40;26.70;78.70